sensor_id;sensor_type;location;lat;lon;timestamp;temperature;humidity
41437;DHT22;27178;49.460;10.850;2023-03-01T00:01:27;3.70;59.50
41437;DHT22;27178;49.460;10.850;2023-03-01T00:03:56;3.70;59.60
41437;DHT22;27178;49.460;10.850;2023-03-01T00:06:25;3.60;59.60
41437;DHT22;27178;49.460;10.850;2023-03-01T00:08:55;3.60;59.70
41437;DHT22;27178;49.460;10.850;2023-03-01T00:11:25;3.60;59.60
41437;DHT22;27178;49.460;10.850;2023-03-01T00:13:56;3.60;59.70
41437;DHT22;27178;49.460;10.850;2023-03-01T00:16:26;3.60;59.90
41437;DHT22;27178;49.460;10.850;2023-03-01T00:18:56;3.60;59.80
41437;DHT22;27178;49.460;10.850;2023-03-01T00:21:25;3.60;59.90
41437;DHT22;27178;49.460;10.850;2023-03-01T00:23:55;3.60;60.00
41437;DHT22;27178;49.460;10.850;2023-03-01T00:26:25;3.50;59.90
41437;DHT22;27178;49.460;10.850;2023-03-01T00:28:56;3.50;60.00
41437;DHT22;27178;49.460;10.850;2023-03-01T00:31:26;3.50;60.00
41437;DHT22;27178;49.460;10.850;2023-03-01T00:33:57;3.50;60.00
41437;DHT22;27178;49.460;10.850;2023-03-01T00:36:27;3.50;60.00
41437;DHT22;27178;49.460;10.850;2023-03-01T00:38:59;3.40;60.10
41437;DHT22;27178;49.460;10.850;2023-03-01T00:41:27;3.40;60.10
41437;DHT22;27178;49.460;10.850;2023-03-01T00:43:56;3.40;60.10
41437;DHT22;27178;49.460;10.850;2023-03-01T00:46:25;3.40;60.10
41437;DHT22;27178;49.460;10.850;2023-03-01T00:48:54;3.40;60.30
41437;DHT22;27178;49.460;10.850;2023-03-01T00:51:23;3.40;60.30
41437;DHT22;27178;49.460;10.850;2023-03-01T00:53:53;3.30;60.30
41437;DHT22;27178;49.460;10.850;2023-03-01T00:56:23;3.30;60.50
41437;DHT22;27178;49.460;10.850;2023-03-01T00:58:52;3.30;60.50
41437;DHT22;27178;49.460;10.850;2023-03-01T01:01:22;3.30;60.30
41437;DHT22;27178;49.460;10.850;2023-03-01T01:03:53;3.30;60.50
41437;DHT22;27178;49.460;10.850;2023-03-01T01:06:23;3.20;60.60
41437;DHT22;27178;49.460;10.850;2023-03-01T01:08:53;3.30;60.70
41437;DHT22;27178;49.460;10.850;2023-03-01T01:11:23;3.20;60.80
41437;DHT22;27178;49.460;10.850;2023-03-01T01:13:52;3.20;60.70
41437;DHT22;27178;49.460;10.850;2023-03-01T01:16:23;3.20;60.70
41437;DHT22;27178;49.460;10.850;2023-03-01T01:18:52;3.20;60.90
41437;DHT22;27178;49.460;10.850;2023-03-01T01:21:23;3.20;60.90
41437;DHT22;27178;49.460;10.850;2023-03-01T01:23:51;3.20;61.00
41437;DHT22;27178;49.460;10.850;2023-03-01T01:26:21;3.20;61.00
41437;DHT22;27178;49.460;10.850;2023-03-01T01:28:53;3.20;61.00
41437;DHT22;27178;49.460;10.850;2023-03-01T01:31:22;3.10;60.90
41437;DHT22;27178;49.460;10.850;2023-03-01T01:33:52;3.10;60.90
41437;DHT22;27178;49.460;10.850;2023-03-01T01:36:20;3.10;60.90
41437;DHT22;27178;49.460;10.850;2023-03-01T01:38:49;3.10;61.10
41437;DHT22;27178;49.460;10.850;2023-03-01T01:41:18;3.10;61.00
41437;DHT22;27178;49.460;10.850;2023-03-01T01:43:49;3.10;61.20
41437;DHT22;27178;49.460;10.850;2023-03-01T01:46:25;3.00;61.20
41437;DHT22;27178;49.460;10.850;2023-03-01T01:48:58;3.10;61.40
41437;DHT22;27178;49.460;10.850;2023-03-01T01:51:31;3.00;61.30
41437;DHT22;27178;49.460;10.850;2023-03-01T01:54:10;3.10;61.00
41437;DHT22;27178;49.460;10.850;2023-03-01T01:56:41;3.00;61.60
41437;DHT22;27178;49.460;10.850;2023-03-01T01:59:12;3.00;61.50
41437;DHT22;27178;49.460;10.850;2023-03-01T02:01:42;3.00;61.50
41437;DHT22;27178;49.460;10.850;2023-03-01T02:04:11;3.00;61.50
41437;DHT22;27178;49.460;10.850;2023-03-01T02:06:44;2.90;61.30
41437;DHT22;27178;49.460;10.850;2023-03-01T02:09:14;2.90;61.40
41437;DHT22;27178;49.460;10.850;2023-03-01T02:11:44;2.90;61.60
41437;DHT22;27178;49.460;10.850;2023-03-01T02:14:12;2.90;61.50
41437;DHT22;27178;49.460;10.850;2023-03-01T02:16:44;2.80;61.70
41437;DHT22;27178;49.460;10.850;2023-03-01T02:19:19;2.80;61.70
41437;DHT22;27178;49.460;10.850;2023-03-01T02:21:58;2.80;61.90
41437;DHT22;27178;49.460;10.850;2023-03-01T02:24:35;2.80;62.00
41437;DHT22;27178;49.460;10.850;2023-03-01T02:27:08;2.80;62.00
41437;DHT22;27178;49.460;10.850;2023-03-01T02:29:38;2.80;62.00
41437;DHT22;27178;49.460;10.850;2023-03-01T02:32:07;2.80;62.00
41437;DHT22;27178;49.460;10.850;2023-03-01T02:34:35;2.80;61.80
41437;DHT22;27178;49.460;10.850;2023-03-01T02:37:07;2.80;62.00
41437;DHT22;27178;49.460;10.850;2023-03-01T02:39:40;2.70;62.20
41437;DHT22;27178;49.460;10.850;2023-03-01T02:42:13;2.70;62.20
41437;DHT22;27178;49.460;10.850;2023-03-01T02:44:44;2.70;63.10
41437;DHT22;27178;49.460;10.850;2023-03-01T02:47:12;2.70;62.00
41437;DHT22;27178;49.460;10.850;2023-03-01T02:49:41;2.70;62.20
41437;DHT22;27178;49.460;10.850;2023-03-01T02:52:29;2.70;62.10
41437;DHT22;27178;49.460;10.850;2023-03-01T02:55:03;2.70;62.70
41437;DHT22;27178;49.460;10.850;2023-03-01T02:57:36;2.70;62.40
41437;DHT22;27178;49.460;10.850;2023-03-01T03:00:09;2.70;62.40
41437;DHT22;27178;49.460;10.850;2023-03-01T03:02:46;2.60;62.40
41437;DHT22;27178;49.460;10.850;2023-03-01T03:05:18;2.60;62.50
41437;DHT22;27178;49.460;10.850;2023-03-01T03:07:48;2.60;62.50
41437;DHT22;27178;49.460;10.850;2023-03-01T03:10:19;2.60;62.50
41437;DHT22;27178;49.460;10.850;2023-03-01T03:12:52;2.60;62.50
41437;DHT22;27178;49.460;10.850;2023-03-01T03:19:11;2.60;63.10
41437;DHT22;27178;49.460;10.850;2023-03-01T03:21:39;2.50;62.40
41437;DHT22;27178;49.460;10.850;2023-03-01T03:24:07;2.50;62.50
41437;DHT22;27178;49.460;10.850;2023-03-01T03:26:36;2.50;62.60
41437;DHT22;27178;49.460;10.850;2023-03-01T03:29:04;2.50;62.80
41437;DHT22;27178;49.460;10.850;2023-03-01T03:31:33;2.50;62.90
41437;DHT22;27178;49.460;10.850;2023-03-01T03:34:02;2.40;62.90
41437;DHT22;27178;49.460;10.850;2023-03-01T03:36:32;2.40;62.90
41437;DHT22;27178;49.460;10.850;2023-03-01T03:39:00;2.40;63.00
41437;DHT22;27178;49.460;10.850;2023-03-01T03:41:28;2.40;63.90
41437;DHT22;27178;49.460;10.850;2023-03-01T03:43:57;2.40;63.00
41437;DHT22;27178;49.460;10.850;2023-03-01T03:46:25;2.40;63.10
41437;DHT22;27178;49.460;10.850;2023-03-01T03:48:53;2.40;63.00
41437;DHT22;27178;49.460;10.850;2023-03-01T03:51:22;2.30;63.00
41437;DHT22;27178;49.460;10.850;2023-03-01T03:53:52;2.30;63.10
41437;DHT22;27178;49.460;10.850;2023-03-01T03:56:21;2.30;63.20
41437;DHT22;27178;49.460;10.850;2023-03-01T03:58:54;2.30;63.30
41437;DHT22;27178;49.460;10.850;2023-03-01T04:01:23;2.30;63.40
41437;DHT22;27178;49.460;10.850;2023-03-01T04:03:51;2.30;63.30
41437;DHT22;27178;49.460;10.850;2023-03-01T04:06:21;2.30;63.30
41437;DHT22;27178;49.460;10.850;2023-03-01T04:08:50;2.20;63.30
41437;DHT22;27178;49.460;10.850;2023-03-01T04:11:27;2.20;63.20
41437;DHT22;27178;49.460;10.850;2023-03-01T04:13:57;2.20;63.30
41437;DHT22;27178;49.460;10.850;2023-03-01T04:16:27;2.20;63.40
41437;DHT22;27178;49.460;10.850;2023-03-01T04:18:57;2.20;63.40
41437;DHT22;27178;49.460;10.850;2023-03-01T04:21:27;2.20;63.50
41437;DHT22;27178;49.460;10.850;2023-03-01T04:23:55;2.20;63.60
41437;DHT22;27178;49.460;10.850;2023-03-01T04:26:24;2.20;63.60
41437;DHT22;27178;49.460;10.850;2023-03-01T04:28:55;2.10;63.60
41437;DHT22;27178;49.460;10.850;2023-03-01T04:31:24;2.20;63.80
41437;DHT22;27178;49.460;10.850;2023-03-01T04:33:54;2.20;63.90
41437;DHT22;27178;49.460;10.850;2023-03-01T04:36:24;2.20;63.90
41437;DHT22;27178;49.460;10.850;2023-03-01T04:38:54;2.20;63.90
41437;DHT22;27178;49.460;10.850;2023-03-01T04:41:24;2.20;63.80
41437;DHT22;27178;49.460;10.850;2023-03-01T04:43:52;2.20;63.90
41437;DHT22;27178;49.460;10.850;2023-03-01T04:46:22;2.20;63.70
41437;DHT22;27178;49.460;10.850;2023-03-01T04:48:50;2.20;63.80
41437;DHT22;27178;49.460;10.850;2023-03-01T04:51:19;2.20;63.60
41437;DHT22;27178;49.460;10.850;2023-03-01T04:53:47;2.20;63.60
41437;DHT22;27178;49.460;10.850;2023-03-01T04:56:16;2.20;63.60
41437;DHT22;27178;49.460;10.850;2023-03-01T04:58:46;2.30;63.80
41437;DHT22;27178;49.460;10.850;2023-03-01T05:01:16;2.20;63.60
41437;DHT22;27178;49.460;10.850;2023-03-01T05:03:48;2.20;63.60
41437;DHT22;27178;49.460;10.850;2023-03-01T05:06:18;2.20;63.70
41437;DHT22;27178;49.460;10.850;2023-03-01T05:08:47;2.10;63.70
41437;DHT22;27178;49.460;10.850;2023-03-01T05:11:15;2.20;63.80
41437;DHT22;27178;49.460;10.850;2023-03-01T05:13:44;2.10;63.60
41437;DHT22;27178;49.460;10.850;2023-03-01T05:16:12;2.10;63.70
41437;DHT22;27178;49.460;10.850;2023-03-01T05:18:41;2.10;63.70
41437;DHT22;27178;49.460;10.850;2023-03-01T05:21:12;2.10;63.70
41437;DHT22;27178;49.460;10.850;2023-03-01T05:23:43;2.10;63.90
41437;DHT22;27178;49.460;10.850;2023-03-01T05:26:11;2.00;63.80
41437;DHT22;27178;49.460;10.850;2023-03-01T05:28:53;2.00;63.80
41437;DHT22;27178;49.460;10.850;2023-03-01T05:31:26;2.00;63.90
41437;DHT22;27178;49.460;10.850;2023-03-01T05:33:55;2.00;63.90
41437;DHT22;27178;49.460;10.850;2023-03-01T05:36:25;2.00;63.80
41437;DHT22;27178;49.460;10.850;2023-03-01T05:38:53;2.00;63.90
41437;DHT22;27178;49.460;10.850;2023-03-01T05:41:23;2.00;64.10
41437;DHT22;27178;49.460;10.850;2023-03-01T05:43:51;2.00;63.90
41437;DHT22;27178;49.460;10.850;2023-03-01T05:46:19;2.00;64.00
41437;DHT22;27178;49.460;10.850;2023-03-01T05:48:50;2.00;64.20
41437;DHT22;27178;49.460;10.850;2023-03-01T05:51:18;2.00;64.20
41437;DHT22;27178;49.460;10.850;2023-03-01T05:53:49;2.00;64.10
41437;DHT22;27178;49.460;10.850;2023-03-01T05:56:17;2.00;64.10
41437;DHT22;27178;49.460;10.850;2023-03-01T05:58:47;2.00;64.10
41437;DHT22;27178;49.460;10.850;2023-03-01T06:01:16;1.90;64.30
41437;DHT22;27178;49.460;10.850;2023-03-01T06:03:44;1.90;64.10
41437;DHT22;27178;49.460;10.850;2023-03-01T06:06:13;1.90;64.20
41437;DHT22;27178;49.460;10.850;2023-03-01T06:08:41;1.90;64.20
41437;DHT22;27178;49.460;10.850;2023-03-01T06:11:11;1.90;64.30
41437;DHT22;27178;49.460;10.850;2023-03-01T06:13:41;2.00;64.50
41437;DHT22;27178;49.460;10.850;2023-03-01T06:16:10;1.90;64.40
41437;DHT22;27178;49.460;10.850;2023-03-01T06:18:38;1.90;64.40
41437;DHT22;27178;49.460;10.850;2023-03-01T06:21:07;1.90;64.30
41437;DHT22;27178;49.460;10.850;2023-03-01T06:23:36;2.00;64.50
41437;DHT22;27178;49.460;10.850;2023-03-01T06:26:08;1.90;64.30
41437;DHT22;27178;49.460;10.850;2023-03-01T06:28:37;1.90;64.60
41437;DHT22;27178;49.460;10.850;2023-03-01T06:31:06;1.90;64.50
41437;DHT22;27178;49.460;10.850;2023-03-01T06:33:35;1.90;64.50
41437;DHT22;27178;49.460;10.850;2023-03-01T06:36:05;1.90;64.50
41437;DHT22;27178;49.460;10.850;2023-03-01T06:38:33;2.00;64.70
41437;DHT22;27178;49.460;10.850;2023-03-01T06:41:01;2.00;64.50
41437;DHT22;27178;49.460;10.850;2023-03-01T06:43:30;1.60;64.30
41437;DHT22;27178;49.460;10.850;2023-03-01T06:45:59;2.00;64.50
41437;DHT22;27178;49.460;10.850;2023-03-01T06:48:28;2.00;64.50
41437;DHT22;27178;49.460;10.850;2023-03-01T06:50:58;2.00;64.50
41437;DHT22;27178;49.460;10.850;2023-03-01T06:53:27;2.00;64.70
41437;DHT22;27178;49.460;10.850;2023-03-01T06:55:56;2.10;64.80
41437;DHT22;27178;49.460;10.850;2023-03-01T06:58:24;2.10;64.90
41437;DHT22;27178;49.460;10.850;2023-03-01T07:00:53;2.10;64.80
41437;DHT22;27178;49.460;10.850;2023-03-01T07:03:23;2.10;64.70
41437;DHT22;27178;49.460;10.850;2023-03-01T07:05:51;2.10;64.80
41437;DHT22;27178;49.460;10.850;2023-03-01T07:08:20;2.10;64.80
41437;DHT22;27178;49.460;10.850;2023-03-01T07:10:55;2.10;64.90
41437;DHT22;27178;49.460;10.850;2023-03-01T07:13:23;2.10;65.00
41437;DHT22;27178;49.460;10.850;2023-03-01T07:15:52;2.20;64.80
41437;DHT22;27178;49.460;10.850;2023-03-01T07:18:20;2.20;64.90
41437;DHT22;27178;49.460;10.850;2023-03-01T07:20:50;2.20;64.70
41437;DHT22;27178;49.460;10.850;2023-03-01T07:23:19;2.20;65.00
41437;DHT22;27178;49.460;10.850;2023-03-01T07:25:51;2.20;65.00
41437;DHT22;27178;49.460;10.850;2023-03-01T07:28:22;2.20;65.20
41437;DHT22;27178;49.460;10.850;2023-03-01T07:30:50;2.20;65.10
41437;DHT22;27178;49.460;10.850;2023-03-01T07:33:19;2.30;65.10
41437;DHT22;27178;49.460;10.850;2023-03-01T07:35:49;2.30;65.20
41437;DHT22;27178;49.460;10.850;2023-03-01T07:38:23;2.30;65.20
41437;DHT22;27178;49.460;10.850;2023-03-01T07:40:52;2.30;65.10
41437;DHT22;27178;49.460;10.850;2023-03-01T07:43:20;2.30;65.10
41437;DHT22;27178;49.460;10.850;2023-03-01T07:45:48;2.30;65.20
41437;DHT22;27178;49.460;10.850;2023-03-01T07:48:16;2.40;65.40
41437;DHT22;27178;49.460;10.850;2023-03-01T07:50:45;2.40;65.30
41437;DHT22;27178;49.460;10.850;2023-03-01T07:53:15;2.40;65.30
41437;DHT22;27178;49.460;10.850;2023-03-01T07:55:43;2.40;65.30
41437;DHT22;27178;49.460;10.850;2023-03-01T07:58:11;2.50;65.30
41437;DHT22;27178;49.460;10.850;2023-03-01T08:00:39;2.50;65.30
41437;DHT22;27178;49.460;10.850;2023-03-01T08:03:07;2.50;65.60
41437;DHT22;27178;49.460;10.850;2023-03-01T08:05:36;2.60;65.30
41437;DHT22;27178;49.460;10.850;2023-03-01T08:08:04;2.60;65.30
41437;DHT22;27178;49.460;10.850;2023-03-01T08:10:36;2.60;65.50
41437;DHT22;27178;49.460;10.850;2023-03-01T08:13:04;2.70;65.50
41437;DHT22;27178;49.460;10.850;2023-03-01T08:15:32;2.70;65.30
41437;DHT22;27178;49.460;10.850;2023-03-01T08:18:01;2.70;65.30
41437;DHT22;27178;49.460;10.850;2023-03-01T08:20:29;2.80;65.30
41437;DHT22;27178;49.460;10.850;2023-03-01T08:22:58;2.80;65.40
41437;DHT22;27178;49.460;10.850;2023-03-01T08:25:26;2.90;65.50
41437;DHT22;27178;49.460;10.850;2023-03-01T08:27:56;3.00;65.50
41437;DHT22;27178;49.460;10.850;2023-03-01T08:30:24;3.00;65.50
41437;DHT22;27178;49.460;10.850;2023-03-01T08:32:53;3.00;65.20
41437;DHT22;27178;49.460;10.850;2023-03-01T08:35:22;3.10;65.30
41437;DHT22;27178;49.460;10.850;2023-03-01T08:37:50;3.20;65.40
41437;DHT22;27178;49.460;10.850;2023-03-01T08:40:19;3.20;65.30
41437;DHT22;27178;49.460;10.850;2023-03-01T08:42:47;3.30;65.20
41437;DHT22;27178;49.460;10.850;2023-03-01T08:45:17;3.30;65.20
41437;DHT22;27178;49.460;10.850;2023-03-01T08:47:46;3.40;65.10
41437;DHT22;27178;49.460;10.850;2023-03-01T08:50:15;3.50;65.00
41437;DHT22;27178;49.460;10.850;2023-03-01T08:52:43;3.50;65.10
41437;DHT22;27178;49.460;10.850;2023-03-01T08:55:12;3.60;64.90
41437;DHT22;27178;49.460;10.850;2023-03-01T08:57:41;3.60;64.80
41437;DHT22;27178;49.460;10.850;2023-03-01T09:00:11;3.70;64.80
41437;DHT22;27178;49.460;10.850;2023-03-01T09:02:43;3.70;64.80
41437;DHT22;27178;49.460;10.850;2023-03-01T09:05:11;3.80;64.70
41437;DHT22;27178;49.460;10.850;2023-03-01T09:07:39;3.90;64.60
41437;DHT22;27178;49.460;10.850;2023-03-01T09:10:09;3.90;64.60
41437;DHT22;27178;49.460;10.850;2023-03-01T09:12:37;4.00;64.60
41437;DHT22;27178;49.460;10.850;2023-03-01T09:15:07;4.00;64.30
41437;DHT22;27178;49.460;10.850;2023-03-01T09:17:36;4.10;64.30
41437;DHT22;27178;49.460;10.850;2023-03-01T09:20:07;4.10;64.00
41437;DHT22;27178;49.460;10.850;2023-03-01T09:22:35;4.20;64.10
41437;DHT22;27178;49.460;10.850;2023-03-01T09:25:05;4.30;64.00
41437;DHT22;27178;49.460;10.850;2023-03-01T09:27:33;4.30;63.80
41437;DHT22;27178;49.460;10.850;2023-03-01T09:30:02;4.40;63.80
41437;DHT22;27178;49.460;10.850;2023-03-01T09:32:30;4.50;63.60
41437;DHT22;27178;49.460;10.850;2023-03-01T09:34:59;4.50;63.40
41437;DHT22;27178;49.460;10.850;2023-03-01T09:37:33;4.60;63.50
41437;DHT22;27178;49.460;10.850;2023-03-01T09:40:03;4.60;63.20
41437;DHT22;27178;49.460;10.850;2023-03-01T09:42:34;4.70;63.10
41437;DHT22;27178;49.460;10.850;2023-03-01T09:45:05;4.80;63.00
41437;DHT22;27178;49.460;10.850;2023-03-01T09:47:36;4.80;62.80
41437;DHT22;27178;49.460;10.850;2023-03-01T09:50:09;4.90;62.70
41437;DHT22;27178;49.460;10.850;2023-03-01T09:52:42;5.00;62.60
41437;DHT22;27178;49.460;10.850;2023-03-01T09:55:12;5.00;62.40
41437;DHT22;27178;49.460;10.850;2023-03-01T09:57:46;5.10;62.30
41437;DHT22;27178;49.460;10.850;2023-03-01T10:00:27;5.20;62.20
41437;DHT22;27178;49.460;10.850;2023-03-01T10:03:03;5.20;62.90
41437;DHT22;27178;49.460;10.850;2023-03-01T10:05:43;5.30;62.00
41437;DHT22;27178;49.460;10.850;2023-03-01T10:08:29;5.30;61.70
41437;DHT22;27178;49.460;10.850;2023-03-01T10:11:03;5.40;61.70
41437;DHT22;27178;49.460;10.850;2023-03-01T10:13:41;5.50;61.70
41437;DHT22;27178;49.460;10.850;2023-03-01T10:16:15;5.50;61.50
41437;DHT22;27178;49.460;10.850;2023-03-01T10:18:46;5.60;61.50
41437;DHT22;27178;49.460;10.850;2023-03-01T10:21:18;5.70;61.40
41437;DHT22;27178;49.460;10.850;2023-03-01T10:23:50;5.70;61.10
41437;DHT22;27178;49.460;10.850;2023-03-01T10:26:35;5.80;61.00
41437;DHT22;27178;49.460;10.850;2023-03-01T10:29:07;5.90;60.80
41437;DHT22;27178;49.460;10.850;2023-03-01T10:31:42;6.00;60.80
41437;DHT22;27178;49.460;10.850;2023-03-01T10:34:14;6.00;60.50
41437;DHT22;27178;49.460;10.850;2023-03-01T10:36:44;6.70;60.80
41437;DHT22;27178;49.460;10.850;2023-03-01T10:39:16;6.20;60.40
41437;DHT22;27178;49.460;10.850;2023-03-01T10:41:57;6.30;60.20
41437;DHT22;27178;49.460;10.850;2023-03-01T10:44:38;6.40;60.00
41437;DHT22;27178;49.460;10.850;2023-03-01T10:47:19;6.50;59.90
41437;DHT22;27178;49.460;10.850;2023-03-01T10:50:17;6.60;59.70
41437;DHT22;27178;49.460;10.850;2023-03-01T10:52:56;6.70;59.80
41437;DHT22;27178;49.460;10.850;2023-03-01T10:55:33;6.80;59.60
41437;DHT22;27178;49.460;10.850;2023-03-01T10:58:16;7.00;59.60
41437;DHT22;27178;49.460;10.850;2023-03-01T11:00:47;7.10;59.50
41437;DHT22;27178;49.460;10.850;2023-03-01T11:03:19;7.20;59.70
41437;DHT22;27178;49.460;10.850;2023-03-01T11:05:58;7.30;59.50
41437;DHT22;27178;49.460;10.850;2023-03-01T11:08:34;7.40;59.10
41437;DHT22;27178;49.460;10.850;2023-03-01T11:13:54;7.60;59.00
41437;DHT22;27178;49.460;10.850;2023-03-01T11:16:32;7.70;58.70
41437;DHT22;27178;49.460;10.850;2023-03-01T11:19:15;7.90;58.70
41437;DHT22;27178;49.460;10.850;2023-03-01T11:21:52;8.00;58.60
41437;DHT22;27178;49.460;10.850;2023-03-01T11:24:26;8.10;58.60
41437;DHT22;27178;49.460;10.850;2023-03-01T11:26:59;8.20;58.40
41437;DHT22;27178;49.460;10.850;2023-03-01T11:29:35;8.30;58.50
41437;DHT22;27178;49.460;10.850;2023-03-01T11:32:15;8.50;58.20
41437;DHT22;27178;49.460;10.850;2023-03-01T11:34:47;8.60;58.20
41437;DHT22;27178;49.460;10.850;2023-03-01T11:37:33;8.70;58.10
41437;DHT22;27178;49.460;10.850;2023-03-01T11:40:12;8.90;57.80
41437;DHT22;27178;49.460;10.850;2023-03-01T11:42:52;9.00;57.90
41437;DHT22;27178;49.460;10.850;2023-03-01T11:45:25;9.20;57.80
41437;DHT22;27178;49.460;10.850;2023-03-01T11:48:12;9.30;57.90
41437;DHT22;27178;49.460;10.850;2023-03-01T11:50:48;9.50;57.30
41437;DHT22;27178;49.460;10.850;2023-03-01T11:53:34;9.60;57.60
41437;DHT22;27178;49.460;10.850;2023-03-01T11:56:15;9.70;57.20
41437;DHT22;27178;49.460;10.850;2023-03-01T11:59:13;9.90;57.20
41437;DHT22;27178;49.460;10.850;2023-03-01T12:01:55;10.00;56.70
41437;DHT22;27178;49.460;10.850;2023-03-01T12:04:54;10.20;56.80
41437;DHT22;27178;49.460;10.850;2023-03-01T12:07:37;10.30;56.30
41437;DHT22;27178;49.460;10.850;2023-03-01T12:10:31;10.40;56.50
41437;DHT22;27178;49.460;10.850;2023-03-01T12:13:25;10.60;56.20
41437;DHT22;27178;49.460;10.850;2023-03-01T12:16:11;10.70;56.10
41437;DHT22;27178;49.460;10.850;2023-03-01T12:19:15;10.90;56.00
41437;DHT22;27178;49.460;10.850;2023-03-01T12:22:00;11.10;55.90
41437;DHT22;27178;49.460;10.850;2023-03-01T12:24:51;11.20;55.70
41437;DHT22;27178;49.460;10.850;2023-03-01T12:27:40;11.30;55.70
41437;DHT22;27178;49.460;10.850;2023-03-01T12:30:23;11.50;55.30
41437;DHT22;27178;49.460;10.850;2023-03-01T12:33:09;11.60;55.40
41437;DHT22;27178;49.460;10.850;2023-03-01T12:36:07;11.30;55.00
41437;DHT22;27178;49.460;10.850;2023-03-01T12:38:41;12.00;55.00
41437;DHT22;27178;49.460;10.850;2023-03-01T12:41:26;12.10;54.90
41437;DHT22;27178;49.460;10.850;2023-03-01T12:44:06;12.30;54.50
41437;DHT22;27178;49.460;10.850;2023-03-01T12:46:47;12.40;54.80
41437;DHT22;27178;49.460;10.850;2023-03-01T12:49:24;12.60;54.40
41437;DHT22;27178;49.460;10.850;2023-03-01T12:51:58;12.70;54.30
41437;DHT22;27178;49.460;10.850;2023-03-01T12:54:29;12.90;54.40
41437;DHT22;27178;49.460;10.850;2023-03-01T12:57:02;13.00;54.20
41437;DHT22;27178;49.460;10.850;2023-03-01T12:59:39;13.20;54.00
41437;DHT22;27178;49.460;10.850;2023-03-01T13:02:15;13.30;53.80
41437;DHT22;27178;49.460;10.850;2023-03-01T13:05:01;13.50;53.30
41437;DHT22;27178;49.460;10.850;2023-03-01T13:07:38;13.60;52.90
41437;DHT22;27178;49.460;10.850;2023-03-01T13:10:20;13.80;53.30
41437;DHT22;27178;49.460;10.850;2023-03-01T13:12:52;13.90;52.80
41437;DHT22;27178;49.460;10.850;2023-03-01T13:15:31;14.00;53.20
41437;DHT22;27178;49.460;10.850;2023-03-01T13:18:02;14.20;52.70
41437;DHT22;27178;49.460;10.850;2023-03-01T13:20:34;14.30;53.00
41437;DHT22;27178;49.460;10.850;2023-03-01T13:23:25;14.40;52.70
41437;DHT22;27178;49.460;10.850;2023-03-01T13:26:08;14.60;52.10
41437;DHT22;27178;49.460;10.850;2023-03-01T13:28:53;14.70;51.80
41437;DHT22;27178;49.460;10.850;2023-03-01T13:34:46;15.00;51.10
41437;DHT22;27178;49.460;10.850;2023-03-01T13:37:25;15.10;51.20
41437;DHT22;27178;49.460;10.850;2023-03-01T13:40:04;15.30;51.00
41437;DHT22;27178;49.460;10.850;2023-03-01T13:42:35;15.40;51.30
41437;DHT22;27178;49.460;10.850;2023-03-01T13:45:24;15.50;51.20
41437;DHT22;27178;49.460;10.850;2023-03-01T13:47:57;15.60;50.70
41437;DHT22;27178;49.460;10.850;2023-03-01T13:50:29;15.70;51.20
41437;DHT22;27178;49.460;10.850;2023-03-01T13:53:03;15.80;51.80
41437;DHT22;27178;49.460;10.850;2023-03-01T13:55:37;16.00;50.80
41437;DHT22;27178;49.460;10.850;2023-03-01T13:58:16;16.10;50.40
41437;DHT22;27178;49.460;10.850;2023-03-01T14:00:46;16.20;49.70
41437;DHT22;27178;49.460;10.850;2023-03-01T14:03:17;16.30;50.10
41437;DHT22;27178;49.460;10.850;2023-03-01T14:05:59;16.40;50.00
41437;DHT22;27178;49.460;10.850;2023-03-01T14:08:42;16.60;49.20
41437;DHT22;27178;49.460;10.850;2023-03-01T14:11:48;16.70;49.60
41437;DHT22;27178;49.460;10.850;2023-03-01T14:14:38;16.80;49.00
41437;DHT22;27178;49.460;10.850;2023-03-01T14:17:32;16.90;49.20
41437;DHT22;27178;49.460;10.850;2023-03-01T14:20:09;17.00;49.20
41437;DHT22;27178;49.460;10.850;2023-03-01T14:22:41;17.10;49.00
41437;DHT22;27178;49.460;10.850;2023-03-01T14:25:21;17.20;48.90
41437;DHT22;27178;49.460;10.850;2023-03-01T14:27:58;17.30;48.10
41437;DHT22;27178;49.460;10.850;2023-03-01T14:30:34;17.40;48.10
41437;DHT22;27178;49.460;10.850;2023-03-01T14:33:05;17.50;48.40
41437;DHT22;27178;49.460;10.850;2023-03-01T14:35:35;17.50;48.40
41437;DHT22;27178;49.460;10.850;2023-03-01T14:38:04;17.60;48.10
41437;DHT22;27178;49.460;10.850;2023-03-01T14:40:35;17.60;48.00
41437;DHT22;27178;49.460;10.850;2023-03-01T14:43:09;17.70;47.50
41437;DHT22;27178;49.460;10.850;2023-03-01T14:45:38;17.80;47.20
41437;DHT22;27178;49.460;10.850;2023-03-01T14:48:07;17.80;47.60
41437;DHT22;27178;49.460;10.850;2023-03-01T14:50:40;17.90;47.50
41437;DHT22;27178;49.460;10.850;2023-03-01T14:53:16;17.90;47.50
41437;DHT22;27178;49.460;10.850;2023-03-01T14:55:50;18.00;47.20
41437;DHT22;27178;49.460;10.850;2023-03-01T14:58:21;18.00;47.10
41437;DHT22;27178;49.460;10.850;2023-03-01T15:00:53;18.10;47.20
41437;DHT22;27178;49.460;10.850;2023-03-01T15:03:27;18.10;47.10
41437;DHT22;27178;49.460;10.850;2023-03-01T15:05:59;18.20;46.80
41437;DHT22;27178;49.460;10.850;2023-03-01T15:08:30;18.30;47.00
41437;DHT22;27178;49.460;10.850;2023-03-01T15:11:04;18.30;47.00
41437;DHT22;27178;49.460;10.850;2023-03-01T15:13:35;18.30;46.40
41437;DHT22;27178;49.460;10.850;2023-03-01T15:16:06;18.30;46.60
41437;DHT22;27178;49.460;10.850;2023-03-01T15:18:36;18.30;46.20
41437;DHT22;27178;49.460;10.850;2023-03-01T15:21:08;18.30;46.20
41437;DHT22;27178;49.460;10.850;2023-03-01T15:23:38;18.30;46.20
41437;DHT22;27178;49.460;10.850;2023-03-01T15:26:23;18.30;46.20
41437;DHT22;27178;49.460;10.850;2023-03-01T15:28:54;18.30;45.60
41437;DHT22;27178;49.460;10.850;2023-03-01T15:31:26;18.30;46.00
41437;DHT22;27178;49.460;10.850;2023-03-01T15:34:08;18.30;46.60
41437;DHT22;27178;49.460;10.850;2023-03-01T15:36:41;18.30;45.10
41437;DHT22;27178;49.460;10.850;2023-03-01T15:39:35;18.30;45.60
41437;DHT22;27178;49.460;10.850;2023-03-01T15:42:08;18.20;45.40
41437;DHT22;27178;49.460;10.850;2023-03-01T15:44:38;18.10;45.30
41437;DHT22;27178;49.460;10.850;2023-03-01T15:47:24;18.00;45.40
41437;DHT22;27178;49.460;10.850;2023-03-01T15:49:54;17.70;44.70
41437;DHT22;27178;49.460;10.850;2023-03-01T15:52:25;17.50;45.30
41437;DHT22;27178;49.460;10.850;2023-03-01T15:54:58;17.30;45.40
41437;DHT22;27178;49.460;10.850;2023-03-01T15:57:28;17.00;45.50
41437;DHT22;27178;49.460;10.850;2023-03-01T15:59:56;16.70;45.70
41437;DHT22;27178;49.460;10.850;2023-03-01T16:02:25;16.40;45.80
41437;DHT22;27178;49.460;10.850;2023-03-01T16:04:53;16.20;45.60
41437;DHT22;27178;49.460;10.850;2023-03-01T16:07:23;15.90;45.80
41437;DHT22;27178;49.460;10.850;2023-03-01T16:09:54;15.70;46.00
41437;DHT22;27178;49.460;10.850;2023-03-01T16:12:23;15.40;46.20